createdAt,value
2022-11-24T00:02:10.633Z,94412.00
2022-11-24T00:04:36.976Z,94414.28
2022-11-24T00:07:03.231Z,94408.09
2022-11-24T00:09:29.917Z,94401.75
2022-11-24T00:11:56.252Z,94405.13
2022-11-24T00:14:22.498Z,94414.81
2022-11-24T00:16:48.818Z,94421.16
2022-11-24T00:19:19.578Z,94419.25
2022-11-24T00:21:46.214Z,94421.28
2022-11-24T00:24:12.449Z,94438.09
2022-11-24T00:26:38.680Z,94440.00
2022-11-24T00:29:04.914Z,94441.81
2022-11-24T00:31:31.195Z,94440.19
2022-11-24T00:33:57.519Z,94445.50
2022-11-24T00:36:23.761Z,94435.34
2022-11-24T00:38:49.997Z,94440.22
2022-11-24T00:41:16.239Z,94443.97
2022-11-24T00:43:42.507Z,94444.97
2022-11-24T00:46:08.798Z,94447.91
2022-11-24T00:48:35.107Z,94444.94
2022-11-24T00:51:01.356Z,94447.47
2022-11-24T00:53:27.607Z,94454.47
2022-11-24T00:55:53.854Z,94457.72
2022-11-24T00:58:20.089Z,94453.97
2022-11-24T01:00:46.326Z,94461.44
2022-11-24T01:03:12.577Z,94470.72
2022-11-24T01:05:38.858Z,94469.22
2022-11-24T01:08:05.090Z,94473.56
2022-11-24T01:10:31.318Z,94478.59
2022-11-24T01:12:57.555Z,94474.66
2022-11-24T01:15:23.809Z,94474.66
2022-11-24T01:17:50.047Z,94469.56
2022-11-24T01:20:16.282Z,94467.44
2022-11-24T01:22:42.535Z,94472.03
2022-11-24T01:25:08.785Z,94465.50
2022-11-24T01:27:35.010Z,94469.13
2022-11-24T01:30:01.280Z,94473.84
2022-11-24T01:32:27.521Z,94474.66
2022-11-24T01:34:53.784Z,94465.94
2022-11-24T01:37:20.013Z,94480.53
2022-11-24T01:39:46.266Z,94482.00
2022-11-24T01:42:12.497Z,94485.06
2022-11-24T01:44:38.754Z,94483.13
2022-11-24T01:47:04.985Z,94486.25
2022-11-24T01:49:31.226Z,94486.53
2022-11-24T01:51:57.478Z,94490.81
2022-11-24T01:54:23.723Z,94488.03
2022-11-24T01:56:49.977Z,94495.41
2022-11-24T01:59:16.234Z,94486.56
2022-11-24T02:01:42.531Z,94495.75
2022-11-24T02:04:08.786Z,94496.25
2022-11-24T02:06:35.022Z,94491.47
2022-11-24T02:09:01.287Z,94496.34
2022-11-24T02:11:27.529Z,94501.44
2022-11-24T02:13:53.769Z,94502.13
2022-11-24T02:16:20.039Z,94510.19
2022-11-24T02:18:46.309Z,94512.16
2022-11-24T02:21:12.599Z,94513.34
2022-11-24T02:23:38.902Z,94517.47
2022-11-24T02:26:05.160Z,94514.53
2022-11-24T02:28:31.418Z,94506.97
2022-11-24T02:30:57.673Z,94510.28
2022-11-24T02:33:23.981Z,94511.09
2022-11-24T02:35:50.215Z,94509.47
2022-11-24T02:38:16.442Z,94515.34
2022-11-24T02:40:42.793Z,94516.00
2022-11-24T02:43:09.044Z,94518.78
2022-11-24T02:45:35.284Z,94512.06
2022-11-24T02:48:01.542Z,94526.00
2022-11-24T02:50:27.788Z,94515.69
2022-11-24T02:52:54.023Z,94508.94
2022-11-24T02:55:20.274Z,94507.84
2022-11-24T02:57:46.528Z,94504.69
2022-11-24T03:00:12.840Z,94508.94
2022-11-24T03:02:39.171Z,94503.41
2022-11-24T03:05:05.418Z,94511.09
2022-11-24T03:07:31.715Z,94514.84
2022-11-24T03:09:58.002Z,94507.31
2022-11-24T03:12:24.249Z,94522.69
2022-11-24T03:14:50.497Z,94521.06
2022-11-24T03:17:16.761Z,94516.66
2022-11-24T03:19:43.010Z,94519.13
2022-11-24T03:22:09.255Z,94517.66
2022-11-24T03:24:35.785Z,94512.91
2022-11-24T03:27:02.195Z,94507.16
2022-11-24T03:29:28.433Z,94494.22
2022-11-24T03:31:54.661Z,94492.59
2022-11-24T03:34:20.907Z,94496.03
2022-11-24T03:36:47.162Z,94493.56
2022-11-24T03:39:13.409Z,94492.56
2022-11-24T03:41:39.646Z,94503.84
2022-11-24T03:44:05.878Z,94502.03
2022-11-24T03:46:32.158Z,94511.38
2022-11-24T03:48:58.421Z,94517.13
2022-11-24T03:51:24.682Z,94522.03
2022-11-24T03:53:50.926Z,94523.66
2022-11-24T03:56:17.191Z,94536.13
2022-11-24T03:58:43.427Z,94538.56
2022-11-24T04:01:09.653Z,94540.38
2022-11-24T04:03:35.910Z,94547.91
2022-11-24T04:06:02.149Z,94543.63
2022-11-24T04:08:28.380Z,94540.06
2022-11-24T04:10:54.614Z,94537.56
2022-11-24T04:13:20.871Z,94534.81
2022-11-24T04:15:47.160Z,94540.88
2022-11-24T04:18:13.441Z,94540.22
2022-11-24T04:20:39.929Z,94544.31
2022-11-24T04:23:06.170Z,94545.47
2022-11-24T04:25:32.413Z,94549.88
2022-11-24T04:27:58.660Z,94556.28
2022-11-24T04:30:24.894Z,94548.75
2022-11-24T04:32:51.121Z,94554.00
2022-11-24T04:35:17.357Z,94562.00
2022-11-24T04:37:43.584Z,94567.72
2022-11-24T04:40:09.836Z,94572.31
2022-11-24T04:42:36.086Z,94574.59
2022-11-24T04:45:02.318Z,94580.84
2022-11-24T04:47:28.655Z,94584.28
2022-11-24T04:49:54.897Z,94577.41
2022-11-24T04:52:21.138Z,94576.91
2022-11-24T04:54:47.372Z,94572.34
2022-11-24T04:57:13.615Z,94572.19
2022-11-24T04:59:39.873Z,94563.66
2022-11-24T05:02:06.163Z,94560.06
2022-11-24T05:04:32.786Z,94570.03
2022-11-24T05:06:59.289Z,94569.53
2022-11-24T05:09:36.929Z,94575.59
2022-11-24T05:12:11.774Z,94579.22
2022-11-24T05:14:38.021Z,94568.56
2022-11-24T05:17:04.371Z,94577.22
2022-11-24T05:19:32.472Z,94576.75
2022-11-24T05:21:58.831Z,94579.38
2022-11-24T05:24:25.066Z,94580.84
2022-11-24T05:26:51.327Z,94578.56
2022-11-24T05:29:17.574Z,94583.94
2022-11-24T05:31:43.861Z,94594.25
2022-11-24T05:34:10.171Z,94589.84
2022-11-24T05:36:36.418Z,94590.50
2022-11-24T05:39:02.647Z,94598.38
2022-11-24T05:41:28.916Z,94596.91
2022-11-24T05:43:55.149Z,94590.50
2022-11-24T05:46:21.440Z,94592.50
2022-11-24T05:48:47.698Z,94582.63
2022-11-24T05:51:13.950Z,94584.44
2022-11-24T05:53:40.186Z,94570.84
2022-11-24T05:56:06.436Z,94569.38
2022-11-24T05:58:32.687Z,94566.59
2022-11-24T06:00:58.937Z,94572.47
2022-11-24T06:03:25.172Z,94580.50
2022-11-24T06:05:51.460Z,94578.88
2022-11-24T06:08:17.794Z,94582.81
2022-11-24T06:10:44.033Z,94574.63
2022-11-24T06:13:10.338Z,94583.16
2022-11-24T06:15:36.694Z,94577.91
2022-11-24T06:18:02.956Z,94580.34
2022-11-24T06:20:32.629Z,94583.97
2022-11-24T06:22:59.402Z,94588.88
2022-11-24T06:25:25.635Z,94581.69
2022-11-24T06:27:51.871Z,94582.84
2022-11-24T06:30:18.148Z,94593.78
2022-11-24T06:32:49.157Z,94595.78
2022-11-24T06:35:16.043Z,94590.34
2022-11-24T06:37:42.269Z,94583.16
2022-11-24T06:40:08.528Z,94590.69
2022-11-24T06:42:34.757Z,94596.06
2022-11-24T06:45:01.007Z,94603.28
2022-11-24T06:47:27.243Z,94597.88
2022-11-24T06:49:53.478Z,94599.03
2022-11-24T06:52:19.724Z,94601.00
2022-11-24T06:54:45.956Z,94608.22
2022-11-24T06:57:12.202Z,94605.09
2022-11-24T06:59:38.438Z,94609.03
2022-11-24T07:02:04.690Z,94614.94
2022-11-24T07:04:30.927Z,94611.16
2022-11-24T07:06:57.178Z,94617.88
2022-11-24T07:09:23.458Z,94619.81
2022-11-24T07:11:49.685Z,94630.13
2022-11-24T07:14:15.930Z,94625.56
2022-11-24T07:16:42.226Z,94628.84
2022-11-24T07:19:08.528Z,94625.88
2022-11-24T07:21:34.775Z,94625.22
2022-11-24T07:24:01.013Z,94629.00
2022-11-24T07:26:27.243Z,94627.69
2022-11-24T07:28:53.480Z,94623.94
2022-11-24T07:31:19.774Z,94632.75
2022-11-24T07:33:46.053Z,94631.28
2022-11-24T07:36:12.297Z,94630.66
2022-11-24T07:38:38.556Z,94636.06
2022-11-24T07:41:04.807Z,94629.50
2022-11-24T07:43:31.034Z,94625.41
2022-11-24T07:45:57.358Z,94631.28
2022-11-24T07:48:23.623Z,94627.22
2022-11-24T07:50:55.323Z,94630.13
2022-11-24T07:53:22.142Z,94646.47
2022-11-24T07:55:48.389Z,94644.69
2022-11-24T07:58:14.630Z,94634.25
2022-11-24T08:00:40.878Z,94642.44
2022-11-24T08:03:07.132Z,94643.94
2022-11-24T08:05:33.373Z,94656.34
2022-11-24T08:07:59.679Z,94664.91
2022-11-24T08:10:25.973Z,94665.88
2022-11-24T08:12:52.244Z,94659.47
2022-11-24T08:15:18.498Z,94649.00
2022-11-24T08:17:44.853Z,94661.47
2022-11-24T08:20:11.082Z,94663.56
2022-11-24T08:22:37.325Z,94670.63
2022-11-24T08:25:03.564Z,94665.06
2022-11-24T08:27:29.799Z,94661.13
2022-11-24T08:29:56.035Z,94667.50
2022-11-24T08:32:22.695Z,94676.19
2022-11-24T08:34:48.993Z,94664.06
2022-11-24T08:37:15.245Z,94667.50
2022-11-24T08:39:41.524Z,94673.75
2022-11-24T08:42:07.803Z,94679.81
2022-11-24T08:44:34.477Z,94677.66
2022-11-24T08:47:00.837Z,94679.94
2022-11-24T08:49:27.084Z,94684.72
2022-11-24T08:51:53.351Z,94693.38
2022-11-24T08:54:19.588Z,94687.66
2022-11-24T08:56:45.882Z,94675.97
2022-11-24T08:59:12.163Z,94682.50
2022-11-24T09:01:38.449Z,94689.53
2022-11-24T09:04:04.760Z,94696.44
2022-11-24T09:06:31.141Z,94692.16
2022-11-24T09:08:57.425Z,94702.50
2022-11-24T09:11:23.654Z,94711.69
2022-11-24T09:13:50.173Z,94704.09
2022-11-24T09:16:16.498Z,94706.06
2022-11-24T09:18:42.798Z,94715.44
2022-11-24T09:21:09.050Z,94708.56
2022-11-24T09:23:35.286Z,94710.69
2022-11-24T09:26:01.533Z,94698.41
2022-11-24T09:28:27.781Z,94684.94
2022-11-24T09:30:54.082Z,94695.22
2022-11-24T09:33:20.403Z,94699.13
2022-11-24T09:35:46.638Z,94700.69
2022-11-24T09:38:12.882Z,94713.19
2022-11-24T09:40:39.123Z,94717.63
2022-11-24T09:43:05.375Z,94711.91
2022-11-24T09:45:57.562Z,94712.84
2022-11-24T09:48:17.823Z,94718.25
2022-11-24T09:50:44.049Z,94723.19
2022-11-24T09:53:10.286Z,94718.41
2022-11-24T09:55:36.552Z,94727.25
2022-11-24T09:58:02.811Z,94735.72
2022-11-24T10:00:29.072Z,94739.66
2022-11-24T10:02:55.378Z,94735.84
2022-11-24T10:05:21.615Z,94742.59
2022-11-24T10:07:47.974Z,94734.03
2022-11-24T10:10:14.230Z,94741.03
2022-11-24T10:12:41.006Z,94740.53
2022-11-24T10:15:07.261Z,94732.50
2022-11-24T10:17:33.510Z,94740.69
2022-11-24T10:19:59.759Z,94735.22
2022-11-24T10:22:26.023Z,94742.09
2022-11-24T10:24:52.276Z,94736.16
2022-11-24T10:27:18.527Z,94731.47
2022-11-24T10:29:44.791Z,94742.63
2022-11-24T10:32:11.031Z,94733.41
2022-11-24T10:34:37.268Z,94740.63
2022-11-24T10:37:03.501Z,94725.97
2022-11-24T10:39:29.759Z,94716.63
2022-11-24T10:41:55.991Z,94716.91
2022-11-24T10:44:22.238Z,94729.25
2022-11-24T10:46:48.509Z,94726.09
2022-11-24T10:49:14.756Z,94727.34
2022-11-24T10:51:41.009Z,94738.94
2022-11-24T10:54:07.241Z,94738.31
2022-11-24T10:56:33.470Z,94731.63
2022-11-24T10:58:59.725Z,94718.38
2022-11-24T11:01:26.034Z,94722.28
2022-11-24T11:03:52.332Z,94720.25
2022-11-24T11:06:18.573Z,94729.84
2022-11-24T11:08:44.817Z,94731.22
2022-11-24T11:11:11.070Z,94732.13
2022-11-24T11:13:37.406Z,94734.59
2022-11-24T11:16:03.730Z,94735.38
2022-11-24T11:18:30.018Z,94738.16
2022-11-24T11:20:56.273Z,94737.03
2022-11-24T11:23:22.516Z,94739.94
2022-11-24T11:25:48.752Z,94737.44
2022-11-24T11:28:17.926Z,94733.03
2022-11-24T11:36:17.152Z,94714.94
2022-11-24T11:38:43.382Z,94721.75
2022-11-24T11:41:09.614Z,94725.84
2022-11-24T11:43:35.850Z,94717.69
2022-11-24T11:46:02.216Z,94731.78
2022-11-24T11:48:28.576Z,94724.06
2022-11-24T11:53:41.055Z,94723.44
2022-11-24T11:56:07.316Z,94720.66
2022-11-24T11:58:33.559Z,94723.13
2022-11-24T12:00:59.815Z,94719.22
2022-11-24T12:03:26.228Z,94734.19
2022-11-24T12:05:52.571Z,94734.69
2022-11-24T12:08:21.299Z,94742.09
2022-11-24T12:10:47.945Z,94732.56
2022-11-24T12:13:14.290Z,94734.13
2022-11-24T12:15:40.622Z,94737.75
2022-11-24T12:18:06.957Z,94735.56
2022-11-24T12:20:33.216Z,94733.94
2022-11-24T12:22:59.445Z,94734.84
2022-11-24T12:25:25.695Z,94729.06
2022-11-24T12:27:51.927Z,94728.16
2022-11-24T12:30:18.186Z,94722.78
2022-11-24T12:32:44.420Z,94726.53
2022-11-24T12:35:10.667Z,94716.06
2022-11-24T12:37:36.925Z,94724.97
2022-11-24T12:40:03.215Z,94728.25
2022-11-24T12:42:29.474Z,94726.91
2022-11-24T12:44:55.730Z,94714.56
2022-11-24T12:47:21.965Z,94705.28
2022-11-24T12:49:48.219Z,94698.38
2022-11-24T12:52:14.478Z,94698.47
2022-11-24T12:54:40.710Z,94704.91
2022-11-24T12:57:06.961Z,94695.00
2022-11-24T12:59:33.445Z,94686.00
2022-11-24T13:01:59.910Z,94687.72
2022-11-24T13:04:26.227Z,94683.25
2022-11-24T13:06:52.463Z,94676.53
2022-11-24T13:09:18.698Z,94678.16
2022-11-24T13:11:44.945Z,94676.81
2022-11-24T13:14:11.190Z,94671.28
2022-11-24T13:16:48.741Z,94668.25
2022-11-24T13:19:23.648Z,94668.19
2022-11-24T13:21:49.874Z,94671.03
2022-11-24T13:26:47.271Z,94662.28
2022-11-24T13:29:24.969Z,94662.53
2022-11-24T13:31:51.904Z,94651.13
2022-11-24T13:34:18.169Z,94654.94
2022-11-24T13:36:44.419Z,94654.94
2022-11-24T13:39:10.646Z,94641.94
2022-11-24T13:41:36.886Z,94642.72
2022-11-24T13:44:03.110Z,94638.13
2022-11-24T13:46:29.397Z,94641.53
2022-11-24T13:48:55.771Z,94634.53
2022-11-24T13:51:22.049Z,94626.47
2022-11-24T13:53:48.290Z,94613.56
2022-11-24T13:56:14.563Z,94623.03
2022-11-24T13:58:40.805Z,94617.44
2022-11-24T14:01:07.067Z,94621.28
2022-11-24T14:03:33.305Z,94617.31
2022-11-24T14:05:59.548Z,94618.94
2022-11-24T14:08:25.793Z,94616.94
2022-11-24T14:10:52.056Z,94608.63
2022-11-24T14:13:18.299Z,94600.47
2022-11-24T14:15:44.612Z,94599.47
2022-11-24T14:18:10.874Z,94598.66
2022-11-24T14:20:37.106Z,94581.38
2022-11-24T14:23:03.331Z,94593.13
2022-11-24T14:25:29.561Z,94588.63
2022-11-24T14:27:55.829Z,94585.97
2022-11-24T14:30:22.089Z,94593.69
2022-11-24T14:32:48.337Z,94593.47
2022-11-24T14:35:14.739Z,94585.50
2022-11-24T14:37:41.025Z,94576.13
2022-11-24T14:40:07.306Z,94572.44
2022-11-24T14:42:33.599Z,94566.53
2022-11-24T14:44:59.821Z,94570.34
2022-11-24T14:47:30.846Z,94568.91
2022-11-24T14:49:58.233Z,94570.84
2022-11-24T14:52:24.524Z,94569.34
2022-11-24T14:54:50.773Z,94569.91
2022-11-24T14:57:17.006Z,94571.66
2022-11-24T14:59:43.244Z,94576.22
2022-11-24T15:02:09.547Z,94575.91
2022-11-24T15:07:22.175Z,94570.44
2022-11-24T15:09:48.458Z,94560.00
2022-11-24T15:12:14.686Z,94549.56
2022-11-24T15:14:40.914Z,94549.88
2022-11-24T15:17:07.149Z,94556.25
2022-11-24T15:19:33.385Z,94555.53
2022-11-24T15:21:59.648Z,94560.69
2022-11-24T15:24:25.903Z,94568.50
2022-11-24T15:26:52.140Z,94567.50
2022-11-24T15:29:18.393Z,94589.75
2022-11-24T15:31:52.194Z,94593.16
2022-11-24T15:34:18.966Z,94597.34
2022-11-24T15:36:45.219Z,94591.34
2022-11-24T15:39:11.494Z,94592.94
2022-11-24T15:41:37.749Z,94583.94
2022-11-24T15:44:03.985Z,94588.00
2022-11-24T15:46:30.275Z,94586.28
2022-11-24T15:48:56.549Z,94591.22
2022-11-24T15:51:22.778Z,94599.00
2022-11-24T15:53:49.028Z,94592.28
2022-11-24T15:56:15.278Z,94599.88
2022-11-24T15:58:41.505Z,94598.25
2022-11-24T16:01:07.786Z,94597.16
2022-11-24T16:03:49.641Z,94591.91
2022-11-24T16:06:22.202Z,94602.56
2022-11-24T16:08:50.696Z,94601.47
2022-11-24T16:11:16.962Z,94603.16
2022-11-24T16:13:48.381Z,94603.84
2022-11-24T16:16:18.169Z,94600.63
2022-11-24T16:18:44.461Z,94598.50
2022-11-24T16:21:10.698Z,94603.25
2022-11-24T16:23:36.946Z,94604.06
2022-11-24T16:26:03.249Z,94610.81
2022-11-24T16:28:29.495Z,94595.25
2022-11-24T16:30:55.744Z,94601.00
2022-11-24T16:33:21.997Z,94603.53
2022-11-24T16:35:48.230Z,94607.06
2022-11-24T16:38:14.471Z,94606.44
2022-11-24T16:40:40.721Z,94608.91
2022-11-24T16:43:06.958Z,94615.06
2022-11-24T16:45:33.265Z,94622.81
2022-11-24T16:47:59.530Z,94619.22
2022-11-24T16:50:25.766Z,94615.16
2022-11-24T16:52:51.999Z,94609.06
2022-11-24T16:55:18.248Z,94608.13
2022-11-24T16:57:44.518Z,94617.31
2022-11-24T17:00:10.770Z,94611.25
2022-11-24T17:02:37.118Z,94608.44
2022-11-24T17:05:03.479Z,94598.97
2022-11-24T17:07:29.784Z,94607.81
2022-11-24T17:09:56.076Z,94601.25
2022-11-24T17:12:22.330Z,94597.81
2022-11-24T17:15:09.419Z,94597.69
2022-11-24T17:17:34.777Z,94599.78
2022-11-24T17:20:01.021Z,94598.81
2022-11-24T17:22:27.250Z,94594.59
2022-11-24T17:24:53.501Z,94597.38
2022-11-24T17:27:19.729Z,94596.75
2022-11-24T17:29:46.008Z,94593.97
2022-11-24T17:32:12.316Z,94592.63
2022-11-24T17:34:38.551Z,94580.66
2022-11-24T17:37:04.802Z,94571.81
2022-11-24T17:39:31.033Z,94580.03
2022-11-24T17:41:57.280Z,94577.06
2022-11-24T17:44:23.539Z,94581.00
2022-11-24T17:46:49.782Z,94595.25
2022-11-24T17:49:16.012Z,94581.03
2022-11-24T17:51:42.241Z,94586.91
2022-11-24T17:54:31.172Z,94589.38
2022-11-24T17:56:54.692Z,94591.81
2022-11-24T17:59:20.952Z,94587.25
2022-11-24T18:01:47.213Z,94591.00
2022-11-24T18:04:13.469Z,94598.03
2022-11-24T18:06:39.730Z,94594.59
2022-11-24T18:09:06.002Z,94594.31
2022-11-24T18:11:32.432Z,94602.31
2022-11-24T18:14:01.125Z,94606.41
2022-11-24T18:16:28.164Z,94604.09
2022-11-24T18:19:07.459Z,94608.19
2022-11-24T18:21:34.452Z,94609.16
2022-11-24T18:24:00.690Z,94604.75
2022-11-24T18:26:26.935Z,94611.63
2022-11-24T18:28:53.178Z,94616.34
2022-11-24T18:31:19.439Z,94613.56
2022-11-24T18:33:45.692Z,94615.72
2022-11-24T18:36:11.925Z,94619.16
2022-11-24T18:38:38.168Z,94626.19
2022-11-24T18:41:04.408Z,94622.75
2022-11-24T18:43:30.664Z,94611.13
2022-11-24T18:45:56.937Z,94620.78
2022-11-24T18:48:23.201Z,94600.16
2022-11-24T18:50:49.469Z,94601.28
2022-11-24T18:53:15.720Z,94602.25
2022-11-24T18:55:41.980Z,94599.81
2022-11-24T18:58:08.234Z,94596.72
2022-11-24T19:00:34.480Z,94596.03
2022-11-24T19:03:00.732Z,94599.03
2022-11-24T19:05:26.992Z,94605.22
2022-11-24T19:07:53.333Z,94594.41
2022-11-24T19:10:19.632Z,94596.22
2022-11-24T19:12:45.880Z,94589.16
2022-11-24T19:15:12.135Z,94588.88
2022-11-24T19:17:38.387Z,94597.38
2022-11-24T19:20:04.622Z,94598.03
2022-11-24T19:22:30.881Z,94597.38
2022-11-24T19:24:57.117Z,94598.53
2022-11-24T19:27:23.347Z,94593.28
2022-11-24T19:29:49.597Z,94585.09
2022-11-24T19:32:15.822Z,94589.84
2022-11-24T19:34:42.056Z,94601.97
2022-11-24T19:37:08.278Z,94604.88
2022-11-24T19:39:34.625Z,94597.03
2022-11-24T19:42:00.873Z,94602.94
2022-11-24T19:44:27.102Z,94603.75
2022-11-24T19:46:53.341Z,94599.81
2022-11-24T19:49:19.589Z,94597.34
2022-11-24T19:51:45.837Z,94590.81
2022-11-24T19:54:12.083Z,94587.38
2022-11-24T19:56:38.341Z,94584.09
2022-11-24T19:59:04.587Z,94590.66
2022-11-24T20:01:30.913Z,94582.63
2022-11-24T20:03:57.232Z,94590.47
2022-11-24T20:06:23.499Z,94591.94
2022-11-24T20:08:49.760Z,94591.78
2022-11-24T20:11:16.013Z,94589.50
2022-11-24T20:13:42.261Z,94588.69
2022-11-24T20:16:08.555Z,94595.06
2022-11-24T20:18:40.431Z,94587.84
2022-11-24T20:21:08.126Z,94577.84
2022-11-24T20:23:34.350Z,94575.91
2022-11-24T20:26:00.591Z,94583.28
2022-11-24T20:28:26.822Z,94585.53
2022-11-24T20:30:53.068Z,94587.22
2022-11-24T20:33:19.308Z,94586.22
2022-11-24T20:35:45.541Z,94593.28
2022-11-24T20:38:11.797Z,94597.34
2022-11-24T20:40:38.033Z,94599.00
2022-11-24T20:43:04.282Z,94599.31
2022-11-24T20:45:30.578Z,94602.75
2022-11-24T20:47:56.865Z,94610.25
2022-11-24T20:50:23.129Z,94610.09
2022-11-24T20:52:49.363Z,94615.03
2022-11-24T20:55:15.607Z,94605.84
2022-11-24T20:57:41.867Z,94600.78
2022-11-24T21:00:08.116Z,94600.78
2022-11-24T21:02:34.399Z,94602.41
2022-11-24T21:05:00.672Z,94597.66
2022-11-24T21:07:27.038Z,94595.88
2022-11-24T21:09:53.319Z,94607.00
2022-11-24T21:12:19.564Z,94615.84
2022-11-24T21:14:45.806Z,94619.91
2022-11-24T21:17:12.059Z,94629.75
2022-11-24T21:19:38.320Z,94622.53
2022-11-24T21:22:04.557Z,94620.25
2022-11-24T21:24:30.784Z,94614.84
2022-11-24T21:26:57.021Z,94613.03
2022-11-24T21:29:23.247Z,94609.09
2022-11-24T21:31:49.544Z,94617.94
2022-11-24T21:34:15.821Z,94613.50
2022-11-24T21:36:42.075Z,94615.31
2022-11-24T21:39:08.386Z,94617.63
2022-11-24T21:41:34.660Z,94623.50
2022-11-24T21:44:00.895Z,94630.03
2022-11-24T21:46:27.129Z,94628.56
2022-11-24T21:48:53.380Z,94621.56
2022-11-24T21:51:19.610Z,94627.94
2022-11-24T21:53:45.860Z,94637.25
2022-11-24T21:56:12.227Z,94635.44
2022-11-24T21:58:38.476Z,94645.91
2022-11-24T22:01:04.777Z,94652.13
2022-11-24T22:03:31.045Z,94646.91
2022-11-24T22:05:57.289Z,94640.03
2022-11-24T22:08:23.545Z,94654.28
2022-11-24T22:10:49.809Z,94661.31
2022-11-24T22:13:16.037Z,94656.38
2022-11-24T22:15:42.277Z,94659.81
2022-11-24T22:18:08.509Z,94667.34
2022-11-24T22:20:34.733Z,94667.53
2022-11-24T22:23:00.988Z,94680.13
2022-11-24T22:25:27.233Z,94669.34
2022-11-24T22:27:53.465Z,94659.22
2022-11-24T22:30:19.699Z,94675.25
2022-11-24T22:32:45.973Z,94662.34
2022-11-24T22:35:12.217Z,94671.97
2022-11-24T22:37:38.461Z,94679.50
2022-11-24T22:40:04.698Z,94683.94
2022-11-24T22:42:30.925Z,94685.38
2022-11-24T22:44:57.180Z,94687.84
2022-11-24T22:47:23.481Z,94688.81
2022-11-24T22:49:49.709Z,94695.19
2022-11-24T22:52:15.960Z,94686.81
2022-11-24T22:54:42.205Z,94684.72
2022-11-24T22:57:08.476Z,94689.59
2022-11-24T22:59:34.752Z,94688.31
2022-11-24T23:02:00.982Z,94680.63
2022-11-24T23:04:27.283Z,94677.84
2022-11-24T23:06:53.568Z,94672.91
2022-11-24T23:09:19.829Z,94674.69
2022-11-24T23:11:46.078Z,94677.31
2022-11-24T23:14:12.321Z,94671.59
2022-11-24T23:16:38.649Z,94657.56
2022-11-24T23:19:04.953Z,94662.81
2022-11-24T23:21:31.209Z,94670.03
2022-11-24T23:23:57.441Z,94679.34
2022-11-24T23:26:23.677Z,94685.25
2022-11-24T23:28:49.934Z,94682.63
2022-11-24T23:31:16.226Z,94703.72
2022-11-24T23:33:42.511Z,94705.19
2022-11-24T23:36:08.772Z,94712.34
2022-11-24T23:38:35.018Z,94716.56
2022-11-24T23:41:01.280Z,94714.44
2022-11-24T23:43:27.541Z,94718.66
2022-11-24T23:45:53.799Z,94712.78
2022-11-24T23:48:20.090Z,94711.09
2022-11-24T23:50:46.345Z,94707.00
2022-11-24T23:53:12.621Z,94701.63
2022-11-24T23:55:38.917Z,94705.56
2022-11-24T23:58:05.143Z,94696.91
